Aérodrome :
LOGIN :

S'inscrire | Disclaimer

   EN    FR    IT 

 










Légende :    VFR   VFR Marginal   IFR   IFR Intensif   IFR Très Intensif
Visi : 
Plafond : 
>= 8 km
>= 3000ft
5 à 8 km
1000 à 3000 ft
1500m à 5 km
500 à 1000 ft
800 à 1500m
200 à 500 ft
< 800m
< 200 ft
Symboles :   Orages  Brouillard  Fortes neiges  Fortes précipitations  Vent > 20 kt
SIGMETs :   Divers  Orages  Givrage  Turbulence  Onde Orograph.  Cendres Volcan.






- Altitude de l'aérodrome : -15 ft
- Code IATA : RTM


EHRD - Rotterdam Zestienhoven

DERNIER METAR :
  • 232225Z AUTO 21010KT 180V240 9999 -RA SCT007 BKN008 BKN009 FEW015CB 16/15 Q0997 RERA TEMPO 22015G25KT 6000 SCT020CB

METARs EXPIRÉS :
  • 232155Z AUTO 22015KT 180V250 9999 SHRA SCT015CB SCT020 OVC023 15/14 Q0997 REDZ TEMPO 22015G25KT 6000
  • 232125Z AUTO 19013KT 150V230 9999 SHRA FEW009 SCT014 BKN015CB 16/15 Q0997 REDZ TEMPO 22015G25KT 6000
  • 232055Z AUTO 18010KT 150V210 9999 -RADZ FEW015CB SCT031 17/15 Q0998 RERA REDZ TEMPO 22015G25KT 6000 SHRA
  • 232025Z AUTO 18008KT 140V200 9999 DZ FEW015CB BKN049 17/15 Q0998 TEMPO 6000 SHRA
  • 231955Z AUTO 18008KT 150V210 9999 DZ FEW015CB SCT045 17/15 Q0998 TEMPO 6000 SHRA

TAF COR TAF EHRD
Valide du 23 à 18h jusqu'au 25 à 00h UTC


231711Z 2318/2424 18009KT 9999 SCT025
TEMPO 2318/2324 24015G25KT 6000 SHRA SCT020CB
PROB30
TEMPO 2319/2323 24020G30KT 4000 TSRA BKN014 SCT018CB
BECMG 2323/2402 24015G25KT
BECMG 2403/2406 20012KT
BECMG 2407/2410 20018G28KT
BECMG 2415/2418 18010KT
PROB30
TEMPO 2415/2421 6000 RA -SHRA FEW020CB
PROB40
TEMPO 2421/2424 23015G25KT 5000 SHRA SCT020CB



MET'MAP, la Météo Aéronautique d'un coup d'oeil ! - Copyright ORBIFLY Décembre 2007 - Disclaimer

ORBIFLY MET'MAP TEAM :

Programmation & Développement : Alexandra Zaïnal
Sur une idée originale de : Baudouin d'Aumeries
Assistance à la programmation : Marc-Olivier Méhu
Soutien technique & logistique : Manuel Goepfert

Contact : metmap@orbifly.com




SOURCES & CREDITS :

   NOAA